Terminal Aerodrome Forecast
Issued by NWS Boise, ID

Home | Current Version | Previous Version | Text Only | Print | Product List | Glossary On
Versions: 1 2 3 4 5 6 7 8 9 10 11 12 13 14 15 16 17 18 19 20 21 22 23 24 25 26 27 28 29 30 31 32
617
FTUS45 KBOI 260520
TAFBOI
TAF
KBOI 260520Z 2606/2706 VRB05KT P6SM OVC080
     FM261000 14006KT P6SM -SHRA OVC050
     FM261400 31007KT 4SM -RA BR BKN015 OVC030=

USA.gov is the U.S. government's official web portal to all federal, state and local government web resources and services.